Nye, Wisconsin
Current Conditions -  °F | °C
As of 9:35 PM on Saturday 24 Jan 2015 (Local Time) from KOEO Reporting Station
Overcast Overcast  
Wind Chill: 30°   Ceiling: 4300
Heat Index: 36°   Visibility: 10mi
Dew Point: 31°   Wind: 7mph
Humidity: 82%   Direction: 50°NE
Pressure: 29.67"   Gusts: NA
Location:  45.3193°N, 92.6951°W
Report Text: KOEO 250335Z AUTO 05006KT 10SM OVC043 02/00 A2967 RMK AO2 T00221005
Loading
Personal Weather Stations






























Interactive Weather Map New forecast layout! Learn more

10-Day Weather Forecast

Advertisements
Track Severe Weather on mobile